Terminal Aerodrome Forecast
Issued by NWS Columbia, SC

Home | Current Version | Previous Version | Text Only | Print | Product List | Glossary On
Versions: 1 2 3 4 5 6 7 8 9 10 11 12 13 14 15 16 17 18 19 20 21 22 23 24 25 26 27 28 29
000
FTUS42 KCAE 281742
TAFCAE
TAF
KCAE 281742Z 2818/2918 11006KT P6SM VCSH SCT050 BKN150
      TEMPO 2818/2820 -SHRA BKN040
     FM290000 VRB03KT P6SM SCT030 BKN150
     FM291000 VRB03KT 4SM BR BKN025
     FM291300 12005KT P6SM SCT060=

USA.gov is the U.S. government's official web portal to all federal, state and local government web resources and services.